createdAt,value
2017-06-08T00:00:17.960Z,1009.21
2017-06-08T00:00:58.454Z,1009.22
2017-06-08T00:01:38.931Z,1009.2
2017-06-08T00:02:19.419Z,1009.23
2017-06-08T00:02:59.898Z,1009.2
2017-06-08T00:03:40.385Z,1009.22
2017-06-08T00:04:20.886Z,1009.23
2017-06-08T00:05:01.374Z,1009.19
2017-06-08T00:05:41.904Z,1009.2
2017-06-08T00:06:22.344Z,1009.22
2017-06-08T00:07:02.839Z,1009.21
2017-06-08T00:07:43.346Z,1009.19
2017-06-08T00:08:23.809Z,1009.18
2017-06-08T00:09:04.328Z,1009.18
2017-06-08T00:09:44.818Z,1009.17
2017-06-08T00:10:25.298Z,1009.17
2017-06-08T00:11:05.785Z,1009.17
2017-06-08T00:11:46.272Z,1009.14
2017-06-08T00:12:26.772Z,1009.18
2017-06-08T00:13:07.244Z,1009.18
2017-06-08T00:13:47.728Z,1009.16
2017-06-08T00:14:28.207Z,1009.17
2017-06-08T00:15:08.696Z,1009.22
2017-06-08T00:15:49.202Z,1009.17
2017-06-08T00:16:29.679Z,1009.15
2017-06-08T00:17:10.163Z,1009.17
2017-06-08T00:17:50.636Z,1009.15
2017-06-08T00:18:31.138Z,1009.14
2017-06-08T00:19:11.603Z,1009.13
2017-06-08T00:19:52.110Z,1009.14
2017-06-08T00:20:32.560Z,1009.13
2017-06-08T00:22:30.201Z,1009.08
2017-06-08T00:23:10.683Z,1009.12
2017-06-08T00:23:51.160Z,1009.07
2017-06-08T00:24:31.654Z,1009.09
2017-06-08T00:25:12.133Z,1009.07
2017-06-08T00:25:52.659Z,1009.09
2017-06-08T00:26:33.124Z,1009.06
2017-06-08T00:27:13.582Z,1009.1
2017-06-08T00:27:54.067Z,1009.09
2017-06-08T00:28:34.545Z,1009.09
2017-06-08T00:29:15.035Z,1009.1
2017-06-08T00:29:55.524Z,1009.06
2017-06-08T00:30:36.006Z,1009.11
2017-06-08T00:31:16.488Z,1009.05
2017-06-08T00:31:56.988Z,1009.11
2017-06-08T00:32:37.478Z,1009.1
2017-06-08T00:33:17.961Z,1009.11
2017-06-08T00:33:58.447Z,1009.13
2017-06-08T00:34:38.930Z,1009.14
2017-06-08T00:35:19.415Z,1009.14
2017-06-08T00:35:59.898Z,1009.12
2017-06-08T00:36:40.394Z,1009.09
2017-06-08T00:37:20.893Z,1009.08
2017-06-08T00:38:01.378Z,1009.1
2017-06-08T00:38:41.846Z,1009.07
2017-06-08T00:39:22.355Z,1009.08
2017-06-08T00:40:02.817Z,1009.09
2017-06-08T00:40:43.290Z,1009.06
2017-06-08T00:41:23.777Z,1009.09
2017-06-08T00:42:04.270Z,1009.07
2017-06-08T00:42:44.766Z,1009.05
2017-06-08T00:43:25.852Z,1009.09
2017-06-08T00:44:06.266Z,1009.11
2017-06-08T00:44:46.754Z,1009.09
2017-06-08T00:45:27.236Z,1009.11
2017-06-08T00:46:07.752Z,1009.08
2017-06-08T00:46:48.207Z,1009.05
2017-06-08T00:47:28.684Z,1009.11
2017-06-08T00:48:09.177Z,1009.12
2017-06-08T00:48:49.651Z,1009.12
2017-06-08T00:49:30.151Z,1009.14
2017-06-08T00:50:10.623Z,1009.12
2017-06-08T00:50:51.102Z,1009.14
2017-06-08T00:51:31.609Z,1009.1
2017-06-08T00:52:12.069Z,1009.11
2017-06-08T00:52:52.566Z,1009.16
2017-06-08T00:53:33.063Z,1009.14
2017-06-08T00:54:13.529Z,1009.17
2017-06-08T00:54:54.030Z,1009.19
2017-06-08T00:55:34.501Z,1009.22
2017-06-08T00:56:14.995Z,1009.2
2017-06-08T00:56:55.484Z,1009.23
2017-06-08T00:57:35.971Z,1009.22
2017-06-08T00:58:17.113Z,1009.2
2017-06-08T00:58:57.606Z,1009.22
2017-06-08T00:59:38.093Z,1009.19
2017-06-08T01:00:18.606Z,1009.19
2017-06-08T01:00:59.082Z,1009.2
2017-06-08T01:01:39.566Z,1009.2
2017-06-08T01:02:20.037Z,1009.19
2017-06-08T01:03:00.509Z,1009.21
2017-06-08T01:03:41.021Z,1009.19
2017-06-08T01:04:21.502Z,1009.22
2017-06-08T01:05:01.997Z,1009.2
2017-06-08T01:05:42.489Z,1009.23
2017-06-08T01:06:22.961Z,1009.18
2017-06-08T01:07:03.452Z,1009.22
2017-06-08T01:07:43.925Z,1009.18
2017-06-08T01:08:24.452Z,1009.18
2017-06-08T01:09:04.954Z,1009.15
2017-06-08T01:09:45.449Z,1009.22
2017-06-08T01:10:25.940Z,1009.19
2017-06-08T01:11:06.409Z,1009.14
2017-06-08T01:11:46.896Z,1009.17
2017-06-08T01:12:27.401Z,1009.17
2017-06-08T01:13:07.871Z,1009.19
2017-06-08T01:13:48.369Z,1009.18
2017-06-08T01:14:28.886Z,1009.2
2017-06-08T01:15:09.337Z,1009.16
2017-06-08T01:15:49.845Z,1009.2
2017-06-08T01:16:30.313Z,1009.15
2017-06-08T01:17:10.803Z,1009.17
2017-06-08T01:17:51.292Z,1009.16
2017-06-08T01:18:31.770Z,1009.17
2017-06-08T01:19:12.274Z,1009.18
2017-06-08T01:19:52.761Z,1009.19
2017-06-08T01:20:33.259Z,1009.22
2017-06-08T01:21:13.752Z,1009.19
2017-06-08T01:21:54.263Z,1009.24
2017-06-08T01:22:34.712Z,1009.21
2017-06-08T01:23:15.201Z,1009.22
2017-06-08T01:23:55.690Z,1009.22
2017-06-08T01:24:36.165Z,1009.18
2017-06-08T01:25:16.653Z,1009.17
2017-06-08T01:25:57.141Z,1009.2
2017-06-08T01:26:37.634Z,1009.15
2017-06-08T01:27:18.115Z,1009.18
2017-06-08T01:27:58.586Z,1009.21
2017-06-08T01:28:39.105Z,1009.17
2017-06-08T01:29:19.559Z,1009.19
2017-06-08T01:30:00.039Z,1009.15
2017-06-08T01:30:40.521Z,1009.16
2017-06-08T01:31:21.025Z,1009.12
2017-06-08T01:32:01.494Z,1009.14
2017-06-08T01:32:41.970Z,1009.14
2017-06-08T01:33:22.440Z,1009.12
2017-06-08T01:34:02.938Z,1009.07
2017-06-08T01:34:43.433Z,1009.05
2017-06-08T01:35:23.918Z,1009.03
2017-06-08T01:36:04.411Z,1009.01
2017-06-08T01:36:44.906Z,1009.04
2017-06-08T01:37:25.389Z,1009.01
2017-06-08T01:38:05.869Z,1009.02
2017-06-08T01:38:46.353Z,1009.03
2017-06-08T01:39:26.840Z,1009.01
2017-06-08T01:40:07.323Z,1009.02
2017-06-08T01:40:47.804Z,1009.02
2017-06-08T01:41:28.285Z,1009.01
2017-06-08T01:42:08.782Z,1008.99
2017-06-08T01:42:49.265Z,1008.98
2017-06-08T01:43:29.747Z,1008.96
2017-06-08T01:44:10.254Z,1008.95
2017-06-08T01:44:50.739Z,1008.96
2017-06-08T01:45:31.211Z,1008.96
2017-06-08T01:46:11.695Z,1008.94
2017-06-08T01:46:52.190Z,1008.98
2017-06-08T01:47:32.673Z,1008.99
2017-06-08T01:48:13.147Z,1009.01
2017-06-08T01:48:53.639Z,1009.02
2017-06-08T01:49:34.132Z,1009.01
2017-06-08T01:50:14.614Z,1008.99
2017-06-08T01:50:55.111Z,1008.99
2017-06-08T01:51:35.604Z,1009
2017-06-08T01:52:16.078Z,1009
2017-06-08T01:52:56.609Z,1008.97
2017-06-08T01:53:37.046Z,1009
2017-06-08T01:54:17.543Z,1009
2017-06-08T01:54:58.024Z,1009.01
2017-06-08T01:55:38.511Z,1009.07
2017-06-08T01:56:19.014Z,1009.06
2017-06-08T01:56:59.493Z,1009.02
2017-06-08T01:57:39.983Z,1009.05
2017-06-08T01:58:20.529Z,1009.05
2017-06-08T01:59:01.012Z,1009.04
2017-06-08T01:59:41.511Z,1009.08
2017-06-08T02:00:21.993Z,1009.08
2017-06-08T02:01:02.479Z,1009.06
2017-06-08T02:01:42.953Z,1009.08
2017-06-08T02:02:23.462Z,1009.09
2017-06-08T02:03:03.940Z,1009.07
2017-06-08T02:03:44.411Z,1009.1
2017-06-08T02:04:24.924Z,1009.07
2017-06-08T02:05:05.410Z,1009.08
2017-06-08T02:05:45.910Z,1009.12
2017-06-08T02:06:26.405Z,1009.07
2017-06-08T02:07:06.869Z,1009.1
2017-06-08T02:07:47.339Z,1009.1
2017-06-08T02:08:27.839Z,1009.11
2017-06-08T02:09:08.314Z,1009.06
2017-06-08T02:09:48.797Z,1009.06
2017-06-08T02:10:29.274Z,1009.04
2017-06-08T02:11:09.755Z,1009
2017-06-08T02:11:50.244Z,1009.04
2017-06-08T02:12:30.743Z,1009.07
2017-06-08T02:13:11.263Z,1009.07
2017-06-08T02:13:51.748Z,1009.06
2017-06-08T02:14:32.227Z,1009.08
2017-06-08T02:15:12.719Z,1009.05
2017-06-08T02:15:53.185Z,1009.07
2017-06-08T02:16:33.706Z,1009.11
2017-06-08T02:17:14.194Z,1009.09
2017-06-08T02:17:54.654Z,1009.11
2017-06-08T02:18:35.151Z,1009.11
2017-06-08T02:19:15.637Z,1009.1
2017-06-08T02:19:56.124Z,1009.11
2017-06-08T02:20:36.603Z,1009.07
2017-06-08T02:21:17.098Z,1009.12
2017-06-08T02:21:57.568Z,1009.1
2017-06-08T02:22:38.064Z,1009.1
2017-06-08T02:23:18.544Z,1009.12
2017-06-08T02:23:59.039Z,1009.14
2017-06-08T02:24:39.520Z,1009.15
2017-06-08T02:25:19.988Z,1009.16
2017-06-08T02:26:00.463Z,1009.11
2017-06-08T02:27:52.987Z,1009.08
2017-06-08T02:28:33.459Z,1009.1
2017-06-08T02:29:13.958Z,1009.09
2017-06-08T02:29:54.456Z,1009.07
2017-06-08T02:30:34.934Z,1009.11
2017-06-08T02:31:15.440Z,1009.09
2017-06-08T02:31:55.909Z,1009.1
2017-06-08T02:32:36.416Z,1009.1
2017-06-08T02:33:16.893Z,1009.08
2017-06-08T02:33:57.374Z,1009.07
2017-06-08T02:34:37.863Z,1009.06
2017-06-08T02:35:18.345Z,1009.04
2017-06-08T02:35:58.826Z,1009.06
2017-06-08T02:36:39.275Z,1009.04
2017-06-08T02:37:19.766Z,1009.06
2017-06-08T02:38:00.259Z,1009.06
2017-06-08T02:38:40.746Z,1009.08
2017-06-08T02:39:21.245Z,1009.08
2017-06-08T02:40:01.740Z,1009.08
2017-06-08T02:40:42.222Z,1009.08
2017-06-08T02:41:22.690Z,1009.05
2017-06-08T02:42:03.221Z,1009.07
2017-06-08T02:42:43.669Z,1009.07
2017-06-08T02:43:24.155Z,1009.05
2017-06-08T02:44:04.644Z,1009.06
2017-06-08T02:44:45.118Z,1009.08
2017-06-08T02:45:25.614Z,1009.03
2017-06-08T02:46:06.092Z,1009.03
2017-06-08T02:46:46.628Z,1009.04
2017-06-08T02:47:27.090Z,1009.03
2017-06-08T02:48:07.561Z,1009.02
2017-06-08T02:48:48.036Z,1009
2017-06-08T02:49:28.541Z,1009.02
2017-06-08T02:50:09.029Z,1009
2017-06-08T02:50:49.504Z,1009
2017-06-08T02:51:30.005Z,1008.98
2017-06-08T02:52:10.546Z,1008.99
2017-06-08T02:52:50.988Z,1009.02
2017-06-08T02:53:31.482Z,1008.99
2017-06-08T02:54:11.980Z,1008.97
2017-06-08T02:54:52.461Z,1008.99
2017-06-08T02:55:32.958Z,1008.97
2017-06-08T02:56:13.453Z,1008.93
2017-06-08T02:56:53.930Z,1008.97
2017-06-08T02:57:34.449Z,1008.99
2017-06-08T02:58:14.897Z,1008.99
2017-06-08T02:58:55.387Z,1008.99
2017-06-08T02:59:35.868Z,1008.99
2017-06-08T03:00:16.359Z,1008.95
2017-06-08T03:00:56.845Z,1008.94
2017-06-08T03:01:37.325Z,1008.99
2017-06-08T03:02:17.806Z,1008.96
2017-06-08T03:02:58.303Z,1008.94
2017-06-08T03:03:38.776Z,1008.93
2017-06-08T03:04:19.277Z,1008.97
2017-06-08T03:04:59.754Z,1008.94
2017-06-08T03:05:40.192Z,1008.95
2017-06-08T03:06:20.679Z,1008.95
2017-06-08T03:07:01.158Z,1008.94
2017-06-08T03:07:41.651Z,1008.93
2017-06-08T03:08:22.135Z,1009
2017-06-08T03:09:02.614Z,1008.97
2017-06-08T03:09:43.095Z,1008.98
2017-06-08T03:10:23.590Z,1008.96
2017-06-08T03:11:04.067Z,1008.99
2017-06-08T03:11:44.563Z,1008.97
2017-06-08T03:12:25.047Z,1008.97
2017-06-08T03:13:05.524Z,1009.01
2017-06-08T03:13:46.005Z,1009
2017-06-08T03:14:26.483Z,1008.95
2017-06-08T03:15:06.973Z,1008.99
2017-06-08T03:15:47.490Z,1008.98
2017-06-08T03:16:27.947Z,1008.99
2017-06-08T03:17:08.428Z,1008.95
2017-06-08T03:17:48.922Z,1008.99
2017-06-08T03:18:29.412Z,1008.99
2017-06-08T03:19:09.898Z,1008.97
2017-06-08T03:19:50.388Z,1008.96
2017-06-08T03:20:30.860Z,1008.99
2017-06-08T03:21:11.343Z,1008.96
2017-06-08T03:21:51.832Z,1008.98
2017-06-08T03:22:32.322Z,1009
2017-06-08T03:23:12.805Z,1008.99
2017-06-08T03:23:53.278Z,1008.98
2017-06-08T03:24:33.773Z,1008.99
2017-06-08T03:25:14.244Z,1009
2017-06-08T03:25:54.759Z,1008.97
2017-06-08T03:26:35.250Z,1008.95
2017-06-08T03:27:15.740Z,1008.98
2017-06-08T03:27:56.225Z,1009.02
2017-06-08T03:28:36.699Z,1008.96
2017-06-08T03:29:17.172Z,1009.02
2017-06-08T03:29:57.654Z,1008.98
2017-06-08T03:30:38.149Z,1008.99
2017-06-08T03:31:18.628Z,1008.96
2017-06-08T03:31:59.112Z,1009
2017-06-08T03:32:39.600Z,1008.98
2017-06-08T03:33:20.087Z,1009
2017-06-08T03:34:00.567Z,1008.97
2017-06-08T03:34:41.050Z,1008.99
2017-06-08T03:35:21.527Z,1008.99
2017-06-08T03:36:02.023Z,1008.95
2017-06-08T03:36:42.507Z,1008.99
2017-06-08T03:37:22.991Z,1008.99
2017-06-08T03:38:03.475Z,1009
2017-06-08T03:38:43.963Z,1008.99
2017-06-08T03:39:24.475Z,1009.02
2017-06-08T03:40:04.921Z,1009.03
2017-06-08T03:40:45.403Z,1009
2017-06-08T03:41:25.928Z,1009.06
2017-06-08T03:42:06.374Z,1009.04
2017-06-08T03:42:46.849Z,1009.03
2017-06-08T03:43:27.324Z,1009.03
2017-06-08T03:44:07.840Z,1009.07
2017-06-08T03:44:48.294Z,1009.04
2017-06-08T03:45:28.768Z,1009.04
2017-06-08T03:46:09.259Z,1009.05
2017-06-08T03:46:49.785Z,1009.07
2017-06-08T03:47:30.241Z,1009.04
2017-06-08T03:48:10.715Z,1009.04
2017-06-08T03:48:51.208Z,1009.04
2017-06-08T03:49:31.704Z,1009.06
2017-06-08T03:50:12.178Z,1009.04
2017-06-08T03:50:52.652Z,1009.07
2017-06-08T03:51:33.136Z,1009.06
2017-06-08T03:52:13.614Z,1009.1
2017-06-08T03:52:54.098Z,1009.1
2017-06-08T03:53:34.579Z,1009.13
2017-06-08T03:54:15.132Z,1009.12
2017-06-08T03:54:55.573Z,1009.15
2017-06-08T03:55:36.039Z,1009.14
2017-06-08T03:56:16.520Z,1009.13
2017-06-08T03:56:56.987Z,1009.15
2017-06-08T03:57:37.478Z,1009.2
2017-06-08T03:58:17.980Z,1009.16
2017-06-08T03:58:58.433Z,1009.17
2017-06-08T03:59:38.916Z,1009.2
2017-06-08T04:00:19.407Z,1009.17
2017-06-08T04:00:59.905Z,1009.19
2017-06-08T04:01:40.383Z,1009.19
2017-06-08T04:02:20.896Z,1009.22
2017-06-08T04:03:01.359Z,1009.22
2017-06-08T04:03:41.838Z,1009.24
2017-06-08T04:04:22.330Z,1009.2
2017-06-08T04:05:02.820Z,1009.25
2017-06-08T04:05:43.344Z,1009.21
2017-06-08T04:06:23.798Z,1009.23
2017-06-08T04:07:04.297Z,1009.23
2017-06-08T04:07:44.790Z,1009.24
2017-06-08T04:08:25.272Z,1009.24
2017-06-08T04:09:05.761Z,1009.2
2017-06-08T04:09:46.250Z,1009.24
2017-06-08T04:10:26.740Z,1009.2
2017-06-08T04:11:07.219Z,1009.26
2017-06-08T04:11:47.709Z,1009.21
2017-06-08T04:12:28.201Z,1009.23
2017-06-08T04:13:08.678Z,1009.21
2017-06-08T04:13:49.168Z,1009.19
2017-06-08T04:14:29.649Z,1009.24
2017-06-08T04:15:10.139Z,1009.22
2017-06-08T04:15:50.625Z,1009.21
2017-06-08T04:16:31.128Z,1009.2
2017-06-08T04:17:11.617Z,1009.23
2017-06-08T04:17:52.103Z,1009.24
2017-06-08T04:18:32.599Z,1009.22
2017-06-08T04:19:13.094Z,1009.25
2017-06-08T04:19:53.579Z,1009.24
2017-06-08T04:20:34.042Z,1009.29
2017-06-08T04:21:14.525Z,1009.29
2017-06-08T04:21:54.986Z,1009.29
2017-06-08T04:22:35.468Z,1009.25
2017-06-08T04:23:15.957Z,1009.22
2017-06-08T04:23:56.472Z,1009.23
2017-06-08T04:24:36.968Z,1009.25
2017-06-08T04:25:17.414Z,1009.27
2017-06-08T04:25:57.902Z,1009.26
2017-06-08T04:26:38.369Z,1009.24
2017-06-08T04:27:18.882Z,1009.28
2017-06-08T04:27:59.357Z,1009.26
2017-06-08T04:28:39.833Z,1009.25
2017-06-08T04:29:20.315Z,1009.24
2017-06-08T04:30:00.823Z,1009.24
2017-06-08T04:30:41.276Z,1009.23
2017-06-08T04:31:21.752Z,1009.24
2017-06-08T04:32:02.238Z,1009.25
2017-06-08T04:32:42.737Z,1009.24
2017-06-08T04:33:23.271Z,1009.28
2017-06-08T04:34:03.811Z,1009.31
2017-06-08T04:34:44.313Z,1009.31
2017-06-08T04:35:24.808Z,1009.32
2017-06-08T04:36:05.288Z,1009.37
2017-06-08T04:36:45.772Z,1009.33
2017-06-08T04:37:27.090Z,1009.31
2017-06-08T04:38:07.570Z,1009.35
2017-06-08T04:38:48.031Z,1009.3
2017-06-08T04:39:28.519Z,1009.29
2017-06-08T04:40:09.024Z,1009.29
2017-06-08T04:40:49.504Z,1009.28
2017-06-08T04:41:29.977Z,1009.3
2017-06-08T04:42:10.452Z,1009.31
2017-06-08T04:42:50.950Z,1009.3
2017-06-08T04:43:31.463Z,1009.31
2017-06-08T04:44:11.917Z,1009.28
2017-06-08T04:44:52.402Z,1009.3
2017-06-08T04:45:32.879Z,1009.31
2017-06-08T04:46:13.371Z,1009.25
2017-06-08T04:46:53.854Z,1009.28
2017-06-08T04:47:34.354Z,1009.3
2017-06-08T04:48:14.846Z,1009.31
2017-06-08T04:48:55.336Z,1009.28
2017-06-08T04:49:35.832Z,1009.3
2017-06-08T04:50:16.327Z,1009.29
2017-06-08T04:50:56.813Z,1009.3
2017-06-08T04:51:37.295Z,1009.26
2017-06-08T04:52:17.802Z,1009.25
2017-06-08T04:52:58.291Z,1009.24
2017-06-08T04:53:39.731Z,1009.27
2017-06-08T04:54:20.210Z,1009.3
2017-06-08T04:55:00.686Z,1009.26
2017-06-08T04:55:41.187Z,1009.32
2017-06-08T04:56:21.678Z,1009.31
2017-06-08T04:57:02.167Z,1009.31
2017-06-08T04:57:42.669Z,1009.3
2017-06-08T04:58:23.158Z,1009.28
2017-06-08T04:59:03.643Z,1009.28
2017-06-08T04:59:44.143Z,1009.26
2017-06-08T05:00:24.633Z,1009.31
2017-06-08T05:01:05.125Z,1009.3
2017-06-08T05:01:45.618Z,1009.32
2017-06-08T05:02:26.115Z,1009.31
2017-06-08T05:03:06.610Z,1009.38
2017-06-08T05:03:47.102Z,1009.36
2017-06-08T05:04:27.590Z,1009.41
2017-06-08T05:05:08.079Z,1009.37
2017-06-08T05:05:48.578Z,1009.38
2017-06-08T05:06:29.064Z,1009.39
2017-06-08T05:07:09.553Z,1009.4
2017-06-08T05:07:50.052Z,1009.39
2017-06-08T05:08:30.564Z,1009.41
2017-06-08T05:09:11.058Z,1009.45
2017-06-08T05:09:51.557Z,1009.38
2017-06-08T05:10:32.046Z,1009.42
2017-06-08T05:11:12.579Z,1009.41
2017-06-08T05:11:53.071Z,1009.42
2017-06-08T05:12:33.555Z,1009.41
2017-06-08T05:13:14.055Z,1009.39
2017-06-08T05:13:54.548Z,1009.42
2017-06-08T05:14:35.042Z,1009.4
2017-06-08T05:15:15.537Z,1009.42
2017-06-08T05:15:56.035Z,1009.4
2017-06-08T05:16:36.533Z,1009.36
2017-06-08T05:17:17.010Z,1009.35
2017-06-08T05:17:57.499Z,1009.38
2017-06-08T05:18:37.992Z,1009.38
2017-06-08T05:19:18.487Z,1009.38
2017-06-08T05:19:58.968Z,1009.41
2017-06-08T05:20:39.466Z,1009.4
2017-06-08T05:21:19.943Z,1009.33
2017-06-08T05:22:00.443Z,1009.36
2017-06-08T05:22:40.922Z,1009.37
2017-06-08T05:23:21.420Z,1009.38
2017-06-08T05:24:01.902Z,1009.36
2017-06-08T05:24:42.398Z,1009.4
2017-06-08T05:25:22.896Z,1009.37
2017-06-08T05:26:03.381Z,1009.35
2017-06-08T05:26:43.868Z,1009.4
2017-06-08T05:27:24.371Z,1009.4
2017-06-08T05:28:04.872Z,1009.37
2017-06-08T05:28:45.373Z,1009.35
2017-06-08T05:29:25.872Z,1009.38
2017-06-08T05:30:06.366Z,1009.37
2017-06-08T05:30:46.870Z,1009.39
2017-06-08T05:31:27.361Z,1009.38
2017-06-08T05:32:07.870Z,1009.37
2017-06-08T05:32:48.375Z,1009.34
2017-06-08T05:33:28.849Z,1009.37
2017-06-08T05:34:09.346Z,1009.36
2017-06-08T05:34:49.848Z,1009.39
2017-06-08T05:35:30.331Z,1009.32
2017-06-08T05:36:10.857Z,1009.34
2017-06-08T05:36:51.337Z,1009.41
2017-06-08T05:37:31.814Z,1009.39
2017-06-08T05:38:12.307Z,1009.36
2017-06-08T05:38:52.803Z,1009.35
2017-06-08T05:39:33.289Z,1009.33
2017-06-08T05:40:13.793Z,1009.32
2017-06-08T05:40:54.283Z,1009.32
2017-06-08T05:41:34.763Z,1009.3
2017-06-08T05:42:15.262Z,1009.29
2017-06-08T05:42:55.760Z,1009.26
2017-06-08T05:43:36.256Z,1009.32
2017-06-08T05:44:16.733Z,1009.29
2017-06-08T05:44:57.233Z,1009.32
2017-06-08T05:45:37.726Z,1009.3
2017-06-08T05:46:18.230Z,1009.29
2017-06-08T05:46:58.710Z,1009.3
2017-06-08T05:47:39.196Z,1009.33
2017-06-08T05:48:19.705Z,1009.3
2017-06-08T05:49:00.199Z,1009.31
2017-06-08T05:49:40.694Z,1009.36
2017-06-08T05:50:21.184Z,1009.34
2017-06-08T05:51:01.667Z,1009.34
2017-06-08T05:51:42.159Z,1009.34
2017-06-08T05:52:22.649Z,1009.37
2017-06-08T05:53:03.158Z,1009.37
2017-06-08T05:53:43.646Z,1009.4
2017-06-08T05:54:24.143Z,1009.4
2017-06-08T05:55:04.627Z,1009.4
2017-06-08T05:55:45.100Z,1009.39
2017-06-08T05:56:25.591Z,1009.43
2017-06-08T05:57:06.062Z,1009.39
2017-06-08T05:57:46.558Z,1009.4
2017-06-08T05:58:27.056Z,1009.37
2017-06-08T05:59:07.543Z,1009.33
2017-06-08T05:59:48.034Z,1009.31
2017-06-08T06:00:28.525Z,1009.32
2017-06-08T06:01:09.028Z,1009.3
2017-06-08T06:01:49.511Z,1009.26
2017-06-08T06:02:29.998Z,1009.29
2017-06-08T06:04:27.607Z,1009.24
2017-06-08T06:05:08.103Z,1009.25
2017-06-08T06:05:48.585Z,1009.23
2017-06-08T06:06:29.069Z,1009.26
2017-06-08T06:07:09.564Z,1009.3
2017-06-08T06:07:50.053Z,1009.33
2017-06-08T06:08:30.534Z,1009.31
2017-06-08T06:09:11.034Z,1009.32
2017-06-08T06:09:51.535Z,1009.31
2017-06-08T06:10:32.044Z,1009.33
2017-06-08T06:11:12.548Z,1009.3
2017-06-08T06:11:53.027Z,1009.35
2017-06-08T06:12:33.520Z,1009.38
2017-06-08T06:13:14.021Z,1009.34
2017-06-08T06:13:54.514Z,1009.31
2017-06-08T06:14:35.005Z,1009.32
2017-06-08T06:15:15.504Z,1009.31
2017-06-08T06:15:55.982Z,1009.32
2017-06-08T06:16:36.492Z,1009.33
2017-06-08T06:17:16.975Z,1009.3
2017-06-08T06:17:57.465Z,1009.32
2017-06-08T06:18:37.970Z,1009.28
2017-06-08T06:19:18.458Z,1009.27
2017-06-08T06:19:59.619Z,1009.29
2017-06-08T06:20:40.131Z,1009.31
2017-06-08T06:21:20.623Z,1009.3
2017-06-08T06:22:01.109Z,1009.33
2017-06-08T06:22:41.587Z,1009.33
2017-06-08T06:23:22.109Z,1009.28
2017-06-08T06:24:02.589Z,1009.31
2017-06-08T06:24:43.085Z,1009.26
2017-06-08T06:25:23.603Z,1009.28
2017-06-08T06:26:04.113Z,1009.26
2017-06-08T06:26:44.619Z,1009.33
2017-06-08T06:27:25.142Z,1009.34
2017-06-08T06:28:05.660Z,1009.35
2017-06-08T06:28:46.161Z,1009.38
2017-06-08T06:29:26.635Z,1009.41
2017-06-08T06:30:07.122Z,1009.37
2017-06-08T06:30:47.608Z,1009.4
2017-06-08T06:31:28.104Z,1009.41
2017-06-08T06:32:08.602Z,1009.43
2017-06-08T06:32:49.094Z,1009.4
2017-06-08T06:33:29.586Z,1009.43
2017-06-08T06:34:10.094Z,1009.42
2017-06-08T06:34:51.544Z,1009.39
2017-06-08T06:35:32.039Z,1009.42
2017-06-08T06:36:12.561Z,1009.37
2017-06-08T06:36:53.067Z,1009.37
2017-06-08T06:37:33.549Z,1009.34
2017-06-08T06:38:14.049Z,1009.31
2017-06-08T06:38:54.553Z,1009.37
2017-06-08T06:39:35.043Z,1009.36
2017-06-08T06:40:15.661Z,1009.38
2017-06-08T06:40:56.157Z,1009.36
2017-06-08T06:41:36.650Z,1009.36
2017-06-08T06:42:17.837Z,1009.32
2017-06-08T06:42:58.323Z,1009.25
2017-06-08T06:43:38.823Z,1009.29
2017-06-08T06:44:19.320Z,1009.29
2017-06-08T06:44:59.862Z,1009.26
2017-06-08T06:45:40.350Z,1009.26
2017-06-08T06:46:20.904Z,1009.22
2017-06-08T06:47:01.401Z,1009.21
2017-06-08T06:47:41.901Z,1009.21
2017-06-08T06:48:22.392Z,1009.17
2017-06-08T06:49:02.892Z,1009.13
2017-06-08T06:49:43.417Z,1009.15
2017-06-08T06:50:23.906Z,1009.2
2017-06-08T06:51:04.395Z,1009.22
2017-06-08T06:51:44.881Z,1009.17
2017-06-08T06:52:25.379Z,1009.16
2017-06-08T06:53:05.904Z,1009.17
2017-06-08T06:53:46.411Z,1009.16
2017-06-08T06:54:26.893Z,1009.18
2017-06-08T06:55:07.386Z,1009.16
2017-06-08T06:55:47.884Z,1009.13
2017-06-08T06:56:28.377Z,1009.13
2017-06-08T06:57:08.868Z,1009.12
2017-06-08T06:57:49.356Z,1009.11
2017-06-08T06:58:29.850Z,1009.12
2017-06-08T06:59:10.376Z,1009.07
2017-06-08T06:59:50.870Z,1009.08
2017-06-08T07:00:31.371Z,1009.08
2017-06-08T07:01:11.858Z,1009.08
2017-06-08T07:01:52.366Z,1009.09
2017-06-08T07:02:33.870Z,1009.08
2017-06-08T07:03:14.365Z,1009.1
2017-06-08T07:03:54.860Z,1009.1
2017-06-08T07:04:35.340Z,1009.06
2017-06-08T07:05:15.843Z,1009.09
2017-06-08T07:05:56.337Z,1009.07
2017-06-08T07:06:36.827Z,1009.09
2017-06-08T07:07:17.323Z,1009.09
2017-06-08T07:07:57.799Z,1009.12
2017-06-08T07:08:38.318Z,1009.09
2017-06-08T07:09:18.815Z,1009.11
2017-06-08T07:09:59.307Z,1009.03
2017-06-08T07:10:39.795Z,1009.05
2017-06-08T07:11:20.308Z,1009
2017-06-08T07:12:00.777Z,1008.99
2017-06-08T07:12:41.261Z,1008.98
2017-06-08T07:15:09.329Z,1008.96
2017-06-08T07:15:49.717Z,1008.95
2017-06-08T07:16:30.184Z,1008.97
2017-06-08T07:17:10.641Z,1008.99
2017-06-08T07:17:51.186Z,1008.97
2017-06-08T07:18:31.639Z,1008.94
2017-06-08T07:19:12.126Z,1008.93
2017-06-08T07:19:52.589Z,1008.93
2017-06-08T07:20:33.025Z,1008.91
2017-06-08T07:21:13.489Z,1008.89
2017-06-08T07:21:54.000Z,1008.89
2017-06-08T07:23:51.677Z,1008.83
2017-06-08T07:24:32.104Z,1008.83
2017-06-08T07:25:12.597Z,1008.83
2017-06-08T07:25:53.079Z,1008.84
2017-06-08T07:26:33.661Z,1008.85
2017-06-08T07:27:14.155Z,1008.84
2017-06-08T07:27:54.653Z,1008.78
2017-06-08T07:28:35.152Z,1008.82
2017-06-08T07:29:15.742Z,1008.81
2017-06-08T07:29:56.242Z,1008.79
2017-06-08T07:31:48.795Z,1008.8
2017-06-08T07:32:29.282Z,1008.83
2017-06-08T07:33:09.813Z,1008.81
2017-06-08T07:33:50.315Z,1008.83
2017-06-08T07:34:30.805Z,1008.79
2017-06-08T07:35:11.300Z,1008.76
2017-06-08T07:35:51.769Z,1008.76
2017-06-08T07:36:32.266Z,1008.75
2017-06-08T07:37:12.773Z,1008.75
2017-06-08T07:37:53.253Z,1008.77
2017-06-08T07:38:33.751Z,1008.77
2017-06-08T07:39:14.251Z,1008.74
2017-06-08T07:39:54.726Z,1008.75
2017-06-08T07:40:35.270Z,1008.76
2017-06-08T07:41:15.765Z,1008.77
2017-06-08T07:41:56.233Z,1008.74
2017-06-08T07:42:36.737Z,1008.75
2017-06-08T07:43:17.233Z,1008.73
2017-06-08T07:43:57.722Z,1008.73
2017-06-08T07:44:38.267Z,1008.75
2017-06-08T07:45:18.740Z,1008.75
2017-06-08T07:47:31.476Z,1008.75
2017-06-08T07:48:12.007Z,1008.72
2017-06-08T07:48:52.509Z,1008.72
2017-06-08T07:49:33.063Z,1008.74
2017-06-08T07:50:13.706Z,1008.69
2017-06-08T07:50:56.316Z,1008.72
2017-06-08T07:51:37.222Z,1008.72
2017-06-08T07:53:34.922Z,1008.66
2017-06-08T07:54:15.368Z,1008.68
2017-06-08T07:56:43.397Z,1008.68
2017-06-08T07:57:23.894Z,1008.69
2017-06-08T07:58:04.449Z,1008.71
2017-06-08T07:58:44.943Z,1008.74
2017-06-08T07:59:25.419Z,1008.73
2017-06-08T08:00:05.970Z,1008.79
2017-06-08T08:00:46.465Z,1008.78
2017-06-08T08:01:26.950Z,1008.76
2017-06-08T08:02:07.436Z,1008.77
2017-06-08T08:02:47.947Z,1008.8
2017-06-08T08:03:28.465Z,1008.8
2017-06-08T08:04:08.933Z,1008.76
2017-06-08T08:04:49.495Z,1008.79
2017-06-08T08:05:29.987Z,1008.8
2017-06-08T08:06:10.494Z,1008.8
2017-06-08T08:06:50.984Z,1008.82
2017-06-08T08:07:31.496Z,1008.83
2017-06-08T08:08:12.046Z,1008.81
2017-06-08T08:08:52.534Z,1008.83
2017-06-08T08:09:33.150Z,1008.8
2017-06-08T08:10:13.663Z,1008.81
2017-06-08T08:10:54.160Z,1008.79
2017-06-08T08:11:34.653Z,1008.84
2017-06-08T08:12:15.134Z,1008.85
2017-06-08T08:12:55.626Z,1008.85
2017-06-08T08:13:36.139Z,1008.87
2017-06-08T08:14:16.634Z,1008.88
2017-06-08T08:14:57.139Z,1008.85
2017-06-08T08:15:37.635Z,1008.85
2017-06-08T08:16:18.131Z,1008.88
2017-06-08T08:16:58.606Z,1008.91
2017-06-08T08:17:39.134Z,1008.93
2017-06-08T08:18:19.657Z,1008.9
2017-06-08T08:19:00.139Z,1008.92
2017-06-08T08:19:40.651Z,1008.97
2017-06-08T08:20:21.246Z,1008.95
2017-06-08T08:21:01.740Z,1008.96
2017-06-08T08:21:42.219Z,1008.96
2017-06-08T08:22:22.717Z,1008.97
2017-06-08T08:23:03.224Z,1008.99
2017-06-08T08:23:43.751Z,1009
2017-06-08T08:24:24.263Z,1009
2017-06-08T08:25:04.757Z,1009